Ms Simon — A8DU9 — position and weather

sailwx.info

Track history (hours):
 
Tides and Currents Weather Stations Pressure Air Temp Water Temp Dewpoint Dewpoint Depression Visibility Wind Speed Wind Dir Waves Ship Positions

Ms Simon

Last reported at 2017-Dec-11 13:25 UTC. Time now 2017-Dec-13 15:07 UTC.
Position N 55°16' E 006°02'.

Length 175 m; draft 6.6 m.

Type: Tanker. MMSI: 636091485.

Date/timePositionNaut miles runAvg speedWind from/ knotsBaromVisibWave heightAir tempDewpointWater temp
2017-Dec-11 13:25N 55°16' E 006°02'612.3
2017-Dec-11 12:57N 55°11' E 005°56'612.5
2017-Dec-11 12:29N 55°06' E 005°50'612.3
2017-Dec-11 12:00N 55°01' E 005°45'612.1
2017-Dec-11 11:30N 54°56' E 005°41'22710.2
2017-Dec-10 13:12N 51°40' E 002°29'410.5
2017-Dec-10 12:49N 51°37' E 002°25'310.6
2017-Dec-10 12:30N 51°34' E 002°21'511.1
2017-Dec-10 12:00N 51°31' E 002°15'611.3
2017-Dec-10 11:30N 51°27' E 002°09'611.6
2017-Dec-10 11:00N 51°22' E 002°03'611.3
2017-Dec-10 10:30N 51°18' E 001°56'611.0
2017-Dec-10 10:00N 51°14' E 001°51'611.4
2017-Dec-10 09:30N 51°10' E 001°45'611.8
2017-Dec-10 09:00N 51°05' E 001°39'611.8
2017-Dec-10 08:30N 51°01' E 001°33'612.1
2017-Dec-10 08:00N 50°56' E 001°27'2211.1
2017-Dec-10 06:01N 50°36' E 001°10'111.1
2017-Dec-10 05:58N 50°36' E 001°10'1510.5
2017-Dec-10 04:30N 50°28' E 000°49'610.6
2017-Dec-10 03:56N 50°27' E 000°40'610.9
2017-Dec-10 03:24N 50°25' E 000°31'511.3
2017-Dec-10 03:00N 50°24' E 000°24'611.8
2017-Dec-10 02:30N 50°23' E 000°15'612.3
2017-Dec-10 02:00N 50°21' E 000°06'612.6
2017-Dec-10 01:30N 50°19' W 000°04'612.8
2017-Dec-10 01:00N 50°18' W 000°13'9710.1
2017-Dec-09 15:23N 49°52' W 002°39'410.5
2017-Dec-09 15:00N 49°51' W 002°45'510.7
2017-Dec-09 14:30N 49°49' W 002°53'911.0
2017-Dec-09 13:42N 49°45' W 003°05'511.3
2017-Dec-09 13:18N 49°42' W 003°11'411.2
2017-Dec-09 12:56N 49°40' W 003°17'8011.8
2017-Dec-09 06:13N 48°59' W 005°01'1413.7
2017-Dec-09 05:12N 48°53' W 005°20'413.5
2017-Dec-09 04:53N 48°50' W 005°25'913.1
2017-Dec-09 04:12N 48°46' W 005°37'257 8.8
2017-Dec-07 22:54N 45°36' W 001°23'614.4
2017-Dec-07 22:30N 45°39' W 001°16'713.9
2017-Dec-07 22:00N 45°38' W 001°06'713.6
2017-Dec-07 21:30N 45°32' W 001°00'715.0
2017-Dec-07 21:00N 45°26' W 000°53'  
2017-Dec-03 22:32N 39°20' W 009°57'013.3
2017-Dec-03 22:31N 39°20' W 009°57'713.1
2017-Dec-03 22:00N 39°13' W 009°57'612.9
2017-Dec-03 21:31N 39°07' W 009°57'612.7
2017-Dec-03 21:01N 39°00' W 009°57'612.8
2017-Dec-03 20:30N 38°54' W 009°57'612.6
2017-Dec-03 20:00N 38°48' W 009°57'612.6
2017-Dec-03 19:31N 38°41' W 009°57'612.3
2017-Dec-03 19:01N 38°36' W 009°53'612.8
2017-Dec-03 18:30N 38°31' W 009°48'912.9
2017-Dec-03 17:49N 38°25' W 009°40'413.0
2017-Dec-03 17:30N 38°22' W 009°37'613.0
2017-Dec-03 17:01N 38°17' W 009°32'713.1
2017-Dec-03 16:28N 38°11' W 009°26'613.1
2017-Dec-03 16:00N 38°06' W 009°21'713.0
2017-Dec-03 15:30N 38°02' W 009°16'713.1
2017-Dec-03 15:01N 37°58' W 009°09'713.1
2017-Dec-03 14:30N 37°55' W 009°02'612.0
2017-Dec-03 14:01N 37°55' W 008°54'2 4.3
2017-Dec-03 13:30N 37°57' W 008°53'0 0.0
2017-Dec-03 12:49N 37°57' W 008°53'0 0.0
2017-Dec-03 12:25N 37°57' W 008°53'0 0.0
2017-Dec-03 11:49N 37°57' W 008°53'0 0.0
2017-Dec-03 10:13N 37°57' W 008°53'0 0.0
2017-Dec-03 09:55N 37°57' W 008°53'0 0.0
2017-Dec-03 09:19N 37°57' W 008°53'0 0.0
2017-Dec-03 08:55N 37°57' W 008°53'0 0.0
2017-Dec-03 08:25N 37°57' W 008°53'0 0.0
2017-Dec-03 07:43N 37°57' W 008°53'0 0.0
2017-Dec-03 07:13N 37°57' W 008°53'0 0.0
2017-Dec-03 06:55N 37°57' W 008°53'0 0.0
2017-Dec-03 05:31N 37°57' W 008°53'0 0.0
2017-Dec-03 03:19N 37°57' W 008°53'0 0.0
2017-Dec-03 02:55N 37°57' W 008°53'0 0.0
2017-Dec-03 02:25N 37°57' W 008°53'0 0.0
2017-Dec-03 01:55N 37°57' W 008°53'0 0.0
2017-Dec-03 00:49N 37°57' W 008°53'0 0.0
2017-Dec-03 00:25N 37°57' W 008°53'0 0.0
2017-Dec-02 23:49N 37°57' W 008°53'0 0.0
2017-Dec-02 23:07N 37°57' W 008°53'0 0.0
2017-Dec-02 21:55N 37°57' W 008°53'0 0.0
2017-Dec-02 21:19N 37°57' W 008°53'0 0.0
2017-Dec-02 20:49N 37°57' W 008°53'0 0.0
2017-Dec-02 20:01N 37°57' W 008°53'0 0.0
2017-Dec-02 19:37N 37°57' W 008°53'0 0.0
2017-Dec-02 19:13N 37°57' W 008°53'0 0.0
2017-Dec-02 18:49N 37°57' W 008°53'0 0.0
2017-Dec-02 18:19N 37°57' W 008°53'0 0.0
2017-Dec-02 17:43N 37°57' W 008°53'0 0.0
2017-Dec-02 17:19N 37°57' W 008°53'0 0.0
2017-Dec-02 16:55N 37°57' W 008°53'0 0.0
2017-Dec-02 16:25N 37°57' W 008°53'0 0.0
2017-Dec-02 15:49N 37°57' W 008°53'0 0.0
2017-Dec-02 15:25N 37°57' W 008°53'0 0.0
2017-Dec-02 14:49N 37°57' W 008°53'0 0.0
2017-Dec-02 14:25N 37°57' W 008°53'0 0.0
2017-Dec-02 13:49N 37°57' W 008°53'0 0.0
2017-Dec-02 13:25N 37°57' W 008°53'0 0.0
2017-Dec-02 13:01N 37°57' W 008°53'0 0.0
2017-Dec-02 12:31N 37°57' W 008°53'0 0.0
2017-Dec-02 11:54N 37°57' W 008°53'0 0.0
2017-Dec-02 09:30N 37°57' W 008°53'0 0.7
2017-Dec-02 09:00N 37°57' W 008°53'2 4.4
2017-Dec-02 08:30N 37°54' W 008°53'3 5.9
2017-Dec-02 08:00N 37°51' W 008°54'3 6.7
2017-Dec-02 07:30N 37°48' W 008°56'510.1
2017-Dec-02 07:00N 37°44' W 008°59'510.2
2017-Dec-02 06:30N 37°41' W 009°04'5 9.8
2017-Dec-02 05:59N 37°37' W 009°08'  
Track history (hours):
 
Tides and Currents Weather Stations Pressure Air Temp Water Temp Dewpoint Dewpoint Depression Visibility Wind Speed Wind Dir Waves Ship Positions

Ms Simon

Last reported at 2017-Dec-11 13:25 UTC. Time now 2017-Dec-13 15:07 UTC.
Position N 55°16' E 006°02'.

Length 175 m; draft 6.6 m.

Type: Tanker. MMSI: 636091485.

Date/timePositionNaut miles runAvg speedWind from/ knotsBaromVisibWave heightAir tempDewpointWater temp
2017-Dec-11 13:25N 55°16' E 006°02'612.3
2017-Dec-11 12:57N 55°11' E 005°56'612.5
2017-Dec-11 12:29N 55°06' E 005°50'612.3
2017-Dec-11 12:00N 55°01' E 005°45'612.1
2017-Dec-11 11:30N 54°56' E 005°41'22710.2
2017-Dec-10 13:12N 51°40' E 002°29'410.5
2017-Dec-10 12:49N 51°37' E 002°25'310.6
2017-Dec-10 12:30N 51°34' E 002°21'511.1
2017-Dec-10 12:00N 51°31' E 002°15'611.3
2017-Dec-10 11:30N 51°27' E 002°09'611.6
2017-Dec-10 11:00N 51°22' E 002°03'611.3
2017-Dec-10 10:30N 51°18' E 001°56'611.0
2017-Dec-10 10:00N 51°14' E 001°51'611.4
2017-Dec-10 09:30N 51°10' E 001°45'611.8
2017-Dec-10 09:00N 51°05' E 001°39'611.8
2017-Dec-10 08:30N 51°01' E 001°33'612.1
2017-Dec-10 08:00N 50°56' E 001°27'2211.1
2017-Dec-10 06:01N 50°36' E 001°10'111.1
2017-Dec-10 05:58N 50°36' E 001°10'1510.5
2017-Dec-10 04:30N 50°28' E 000°49'610.6
2017-Dec-10 03:56N 50°27' E 000°40'610.9
2017-Dec-10 03:24N 50°25' E 000°31'511.3
2017-Dec-10 03:00N 50°24' E 000°24'611.8
2017-Dec-10 02:30N 50°23' E 000°15'612.3
2017-Dec-10 02:00N 50°21' E 000°06'612.6
2017-Dec-10 01:30N 50°19' W 000°04'612.8
2017-Dec-10 01:00N 50°18' W 000°13'9710.1
2017-Dec-09 15:23N 49°52' W 002°39'410.5
2017-Dec-09 15:00N 49°51' W 002°45'510.7
2017-Dec-09 14:30N 49°49' W 002°53'911.0
2017-Dec-09 13:42N 49°45' W 003°05'511.3
2017-Dec-09 13:18N 49°42' W 003°11'411.2
2017-Dec-09 12:56N 49°40' W 003°17'8011.8
2017-Dec-09 06:13N 48°59' W 005°01'1413.7
2017-Dec-09 05:12N 48°53' W 005°20'413.5
2017-Dec-09 04:53N 48°50' W 005°25'913.1
2017-Dec-09 04:12N 48°46' W 005°37'257 8.8
2017-Dec-07 22:54N 45°36' W 001°23'614.4
2017-Dec-07 22:30N 45°39' W 001°16'713.9
2017-Dec-07 22:00N 45°38' W 001°06'713.6
2017-Dec-07 21:30N 45°32' W 001°00'715.0
2017-Dec-07 21:00N 45°26' W 000°53'  
2017-Dec-03 22:32N 39°20' W 009°57'013.3
2017-Dec-03 22:31N 39°20' W 009°57'713.1
2017-Dec-03 22:00N 39°13' W 009°57'612.9
2017-Dec-03 21:31N 39°07' W 009°57'612.7
2017-Dec-03 21:01N 39°00' W 009°57'612.8
2017-Dec-03 20:30N 38°54' W 009°57'612.6
2017-Dec-03 20:00N 38°48' W 009°57'612.6
2017-Dec-03 19:31N 38°41' W 009°57'612.3
2017-Dec-03 19:01N 38°36' W 009°53'612.8
2017-Dec-03 18:30N 38°31' W 009°48'912.9
2017-Dec-03 17:49N 38°25' W 009°40'413.0
2017-Dec-03 17:30N 38°22' W 009°37'613.0
2017-Dec-03 17:01N 38°17' W 009°32'713.1
2017-Dec-03 16:28N 38°11' W 009°26'613.1
2017-Dec-03 16:00N 38°06' W 009°21'713.0
2017-Dec-03 15:30N 38°02' W 009°16'713.1
2017-Dec-03 15:01N 37°58' W 009°09'713.1
2017-Dec-03 14:30N 37°55' W 009°02'612.0
2017-Dec-03 14:01N 37°55' W 008°54'2 4.3
2017-Dec-03 13:30N 37°57' W 008°53'0 0.0
2017-Dec-03 12:49N 37°57' W 008°53'0 0.0
2017-Dec-03 12:25N 37°57' W 008°53'0 0.0
2017-Dec-03 11:49N 37°57' W 008°53'0 0.0
2017-Dec-03 10:13N 37°57' W 008°53'0 0.0
2017-Dec-03 09:55N 37°57' W 008°53'0 0.0
2017-Dec-03 09:19N 37°57' W 008°53'0 0.0
2017-Dec-03 08:55N 37°57' W 008°53'0 0.0
2017-Dec-03 08:25N 37°57' W 008°53'0 0.0
2017-Dec-03 07:43N 37°57' W 008°53'0 0.0
2017-Dec-03 07:13N 37°57' W 008°53'0 0.0
2017-Dec-03 06:55N 37°57' W 008°53'0 0.0
2017-Dec-03 05:31N 37°57' W 008°53'0 0.0
2017-Dec-03 03:19N 37°57' W 008°53'0 0.0
2017-Dec-03 02:55N 37°57' W 008°53'0 0.0
2017-Dec-03 02:25N 37°57' W 008°53'0 0.0
2017-Dec-03 01:55N 37°57' W 008°53'0 0.0
2017-Dec-03 00:49N 37°57' W 008°53'0 0.0
2017-Dec-03 00:25N 37°57' W 008°53'0 0.0
2017-Dec-02 23:49N 37°57' W 008°53'0 0.0
2017-Dec-02 23:07N 37°57' W 008°53'0 0.0
2017-Dec-02 21:55N 37°57' W 008°53'0 0.0
2017-Dec-02 21:19N 37°57' W 008°53'0 0.0
2017-Dec-02 20:49N 37°57' W 008°53'0 0.0
2017-Dec-02 20:01N 37°57' W 008°53'0 0.0
2017-Dec-02 19:37N 37°57' W 008°53'0 0.0
2017-Dec-02 19:13N 37°57' W 008°53'0 0.0
2017-Dec-02 18:49N 37°57' W 008°53'0 0.0
2017-Dec-02 18:19N 37°57' W 008°53'0 0.0
2017-Dec-02 17:43N 37°57' W 008°53'0 0.0
2017-Dec-02 17:19N 37°57' W 008°53'0 0.0
2017-Dec-02 16:55N 37°57' W 008°53'0 0.0
2017-Dec-02 16:25N 37°57' W 008°53'0 0.0
2017-Dec-02 15:49N 37°57' W 008°53'0 0.0
2017-Dec-02 15:25N 37°57' W 008°53'0 0.0
2017-Dec-02 14:49N 37°57' W 008°53'0 0.0
2017-Dec-02 14:25N 37°57' W 008°53'0 0.0
2017-Dec-02 13:49N 37°57' W 008°53'0 0.0
2017-Dec-02 13:25N 37°57' W 008°53'0 0.0
2017-Dec-02 13:01N 37°57' W 008°53'0 0.0
2017-Dec-02 12:31N 37°57' W 008°53'0 0.0
2017-Dec-02 11:54N 37°57' W 008°53'0 0.0
2017-Dec-02 09:30N 37°57' W 008°53'0 0.7
2017-Dec-02 09:00N 37°57' W 008°53'2 4.4
2017-Dec-02 08:30N 37°54' W 008°53'3 5.9
2017-Dec-02 08:00N 37°51' W 008°54'3 6.7
2017-Dec-02 07:30N 37°48' W 008°56'510.1
2017-Dec-02 07:00N 37°44' W 008°59'510.2
2017-Dec-02 06:30N 37°41' W 009°04'5 9.8
2017-Dec-02 05:59N 37°37' W 009°08'  

Dump ship's entire track history